Aviation Digital Data Service (ADDS)

Output produced by METARs form (1813 UTC 19 August 2019)
found at http://www.aviationweather.gov/metar/data/
 
Forecast for: UKLI (IVANO-FRANKIVSK , UA)
Text: TAF UKLI 191701Z 1918/2003 VRB01MPS 9999 SCT030 TX26/1918Z TN16/2003Z
Forecast period: 1800 UTC 19 August 2019 to 0300 UTC 20 August 2019
Forecast type: FROM: standard forecast or significant change
Winds: variable direction winds at 2 MPH (2 knots; 1.0 m/s)
Visibility: 6 or more miles 10+ km)
Ceiling: at least 12,000 feet AGL
Clouds: scattered clouds at 3000 feet AGL
Weather: no significant weather forecast for this period